KGPC

Putnam County Regional Airport

Greencastle, Indiana, USA
METAR KGPC 230535Z AUTO 00000KT 10SM CLR 07/04 A3014 RMK AO2
Observed Flight Rules
Oct-23 @ 05:35 UTC (8 minutes ago) Visual Flight Rules
Visibility Clouds
10 miles
  • Clear skies
Temperatures Readings
Current 7°C / 45°F
Dewpoint 4°C / 39°F
Humidity 81%
Altimeter 30.14" Hg
Pressure 1021 hPa
Elevation 257
METAR KGPC 230535Z AUTO 00000KT 10SM CLR 07/04 A3014 RMK AO2
Observed Flight Rules
Oct-23 @ 05:35 UTC
(8 minutes ago)
VFR
Clouds
  • Clear skies
Temperature Dewpoint
7°C / 45°F 4°C / 39°F
Humidity Altimeter Pressure
81% 30.14" Hg 1021 hPa